This is the latest recevied weather packets stored in our database for station/object EA5HRE-13. If no packets are shown the sender has not sent any weather packets the latest 10 day(s).
| Time | Temp. | Humidity | Pressure | Rain* | Wind** | Luminosity | Snow |
|---|---|---|---|---|---|---|---|
| 1788362331 | 31.11° C | 59% | 1018.9 hPa | 0 mm | - | - | - |
| 1788359628 | 31.11° C | 59% | 1019.3 hPa | 0 mm | - | - | - |
| 1788356025 | 31.11° C | 59% | 1019.8 hPa | 0 mm | - | - | - |
| 1788355124 | 31.11° C | 59% | 1020 hPa | 0 mm | - | - | - |
| 1788353322 | 31.11° C | 59% | 1020.2 hPa | 0 mm | - | - | - |
| 1788352421 | 30.56° C | 60% | 1020.2 hPa | 0 mm | - | - | - |
| 1788351520 | 30.56° C | 60% | 1020.3 hPa | 0 mm | - | - | - |
| 1788348816 | 30.56° C | 60% | 1020.6 hPa | 0 mm | - | - | - |
| 1788347914 | 30° C | 61% | 1020.6 hPa | 0 mm | - | - | - |
| 1788347014 | 30° C | 61% | 1020.7 hPa | 0 mm | - | - | - |
| 1788346112 | 30° C | 62% | 1020.8 hPa | 0 mm | - | - | - |
| 1788345212 | 29.44° C | 63% | 1020.8 hPa | 0 mm | - | - | - |
| 1788344311 | 29.44° C | 64% | 1020.8 hPa | 0 mm | - | - | - |
| 1788343410 | 28.89° C | 65% | 1020.8 hPa | 0 mm | - | - | - |
| 1788341608 | 28.33° C | 68% | 1020.7 hPa | 0 mm | - | - | - |
| 1788340707 | 28.33° C | 70% | 1020.7 hPa | 0 mm | - | - | - |
| 1788339806 | 27.78° C | 72% | 1020.6 hPa | 0 mm | - | - | - |
| 1788338905 | 27.22° C | 74% | 1020.5 hPa | 0 mm | - | - | - |
| 1788338005 | 26.67° C | 75% | 1020.3 hPa | 0 mm | - | - | - |
| 1788337106 | 26.67° C | 77% | 1020.2 hPa | 0 mm | - | - | - |
| 1788336202 | 26.11° C | 79% | 1020 hPa | 0 mm | - | - | - |
| 1788335302 | 25.56° C | 82% | 1019.9 hPa | 0 mm | - | - | - |
| 1788334401 | 24.44° C | 85% | 1019.7 hPa | 0 mm | - | - | - |
| 1788333500 | 24.44° C | 88% | 1019.6 hPa | 0 mm | - | - | - |
| 1788332599 | 23.89° C | 91% | 1019.4 hPa | 0 mm | - | - | - |
* Rain latest hour (hover to see other rain measurements)
** Current wind speed in m/s (hover to see current wind gust speed)